Air Navigation Services of Czech Republic
Airport: LKCV Updated:  28.01.2021 01:28:24  UTC
 METAR LKCV 28.01. 01:30 ...
METAR LKCV 280130Z 14005KT 9999 -SN SCT025 OVC037 M02/M04 Q1011 NOSIG RMK BLU BLU=
 TAF LKCV 27.01. 23:00 ...
TAF LKCV 272300Z 2800/2900 22008KT 9999 BKN035      TEMPO 2801/2811 4000 SN BKN012 OVC015      BECMG 2814/2816 16005KT 5000 SNRA BKN010 OVC020      TEMPO 2815/2823 1500 SN BKN005 OVC015=